Forside
METAR-TAF:

METAR-TAF

Lufthavne :

Wakkanai, Japan

Breddekreds: 45-24N, længdekreds: 141-48E, højde: 8 m

Aktuelle vejr

Denne rapport blev lavet for 1 time og 10 minutter siden, kl. 08:00 UTC
Vind 13 kt fra nordnordvest
Temperatur -3°C
Fugtighed 74%
Tryk 1019 hPa
Sigt 10 km eller mere
Nogle få skyer i en højde af 500 ft
Spredte skyer i en højde af 2000 ft
Brudte skyer i en højde af 3000 ft
let snebyger

METAR: RJCW 270800Z 33013KT 9999 -SHSN FEW005 SCT020 BKN030 M03/M07 Q1019

Tid: 18:10 (09:10 UTC)


TAF: fraværende

Vejrobservationer og prognoser fra mere end 4000 lufthavne (METAR og TAF).

De gule og røde prikker repræsenterer de meteorologiske stationer.

Flyt musen over at se navnet på stationen.

Så klik over at se vejr observationer og prognoser.

At skifte det kort: Klik på de grønne knapper med et sort kors for at zoome ind; på den grønne knap med en bindestreg for at zoome ud; eller på de grønne pile for tilstødende kort.


METAR-TAF: